sensor_id;sensor_type;location;lat;lon;timestamp;temperature;humidity
30250;DHT22;17064;47.974;13.826;2022-07-21T03:00:33;21.90;99.90
30250;DHT22;17064;47.974;13.826;2022-07-21T03:05:55;21.80;99.90
30250;DHT22;17064;47.974;13.826;2022-07-21T03:11:16;21.70;99.90
30250;DHT22;17064;47.974;13.826;2022-07-21T03:16:37;21.60;99.90
30250;DHT22;17064;47.974;13.826;2022-07-21T03:21:58;21.60;99.90
30250;DHT22;17064;47.974;13.826;2022-07-21T03:27:19;21.60;99.90
30250;DHT22;17064;47.974;13.826;2022-07-21T03:32:40;21.50;99.90
30250;DHT22;17064;47.974;13.826;2022-07-21T03:38:02;21.40;99.90
30250;DHT22;17064;47.974;13.826;2022-07-21T03:43:23;21.40;99.90
30250;DHT22;17064;47.974;13.826;2022-07-21T03:48:44;21.40;99.90
30250;DHT22;17064;47.974;13.826;2022-07-21T03:54:05;21.30;99.90
30250;DHT22;17064;47.974;13.826;2022-07-21T03:59:26;21.20;99.90
30250;DHT22;17064;47.974;13.826;2022-07-21T04:04:47;21.20;99.90
30250;DHT22;17064;47.974;13.826;2022-07-21T04:10:10;21.20;99.90
30250;DHT22;17064;47.974;13.826;2022-07-21T04:15:32;21.20;99.90
30250;DHT22;17064;47.974;13.826;2022-07-21T04:20:53;21.30;99.90
30250;DHT22;17064;47.974;13.826;2022-07-21T04:26:14;21.40;99.90
30250;DHT22;17064;47.974;13.826;2022-07-21T04:31:35;21.60;99.90
30250;DHT22;17064;47.974;13.826;2022-07-21T04:36:56;21.70;99.90
30250;DHT22;17064;47.974;13.826;2022-07-21T04:42:17;21.80;99.90
30250;DHT22;17064;47.974;13.826;2022-07-21T04:47:47;21.90;99.90
30250;DHT22;17064;47.974;13.826;2022-07-21T04:53:08;22.10;99.90
30250;DHT22;17064;47.974;13.826;2022-07-21T04:58:30;22.20;99.90
30250;DHT22;17064;47.974;13.826;2022-07-21T05:03:51;22.30;99.90
30250;DHT22;17064;47.974;13.826;2022-07-21T05:09:12;22.50;99.90
30250;DHT22;17064;47.974;13.826;2022-07-21T05:14:33;22.60;99.90
30250;DHT22;17064;47.974;13.826;2022-07-21T05:19:54;22.80;99.90
30250;DHT22;17064;47.974;13.826;2022-07-21T05:25:15;22.90;99.90
30250;DHT22;17064;47.974;13.826;2022-07-21T05:30:36;23.10;99.90
30250;DHT22;17064;47.974;13.826;2022-07-21T05:35:57;23.20;99.90
30250;DHT22;17064;47.974;13.826;2022-07-21T05:41:18;23.40;99.90
30250;DHT22;17064;47.974;13.826;2022-07-21T05:46:40;23.50;99.90
30250;DHT22;17064;47.974;13.826;2022-07-21T05:52:00;23.70;99.90
30250;DHT22;17064;47.974;13.826;2022-07-21T05:57:21;24.00;99.90
30250;DHT22;17064;47.974;13.826;2022-07-21T06:02:46;24.10;99.90
30250;DHT22;17064;47.974;13.826;2022-07-21T06:08:13;24.20;98.20
30250;DHT22;17064;47.974;13.826;2022-07-21T06:13:35;24.30;98.20
30250;DHT22;17064;47.974;13.826;2022-07-21T06:18:56;24.40;97.10
30250;DHT22;17064;47.974;13.826;2022-07-21T06:24:17;24.40;95.90
30250;DHT22;17064;47.974;13.826;2022-07-21T06:29:40;24.50;95.80
30250;DHT22;17064;47.974;13.826;2022-07-21T06:35:01;24.80;95.30
30250;DHT22;17064;47.974;13.826;2022-07-21T06:40:23;25.00;94.50
30250;DHT22;17064;47.974;13.826;2022-07-21T06:45:44;25.20;93.90
30250;DHT22;17064;47.974;13.826;2022-07-21T06:51:05;25.40;93.30
30250;DHT22;17064;47.974;13.826;2022-07-21T06:56:26;25.70;92.50
30250;DHT22;17064;47.974;13.826;2022-07-21T07:01:47;25.80;91.30
30250;DHT22;17064;47.974;13.826;2022-07-21T07:07:08;26.00;91.20
30250;DHT22;17064;47.974;13.826;2022-07-21T07:12:29;26.20;90.80
30250;DHT22;17064;47.974;13.826;2022-07-21T07:17:51;26.30;85.10
30250;DHT22;17064;47.974;13.826;2022-07-21T07:23:12;26.40;84.40
30250;DHT22;17064;47.974;13.826;2022-07-21T07:28:33;26.50;84.40
30250;DHT22;17064;47.974;13.826;2022-07-21T07:33:54;26.80;85.00
30250;DHT22;17064;47.974;13.826;2022-07-21T07:39:17;27.20;83.10
30250;DHT22;17064;47.974;13.826;2022-07-21T07:44:39;27.30;79.30
30250;DHT22;17064;47.974;13.826;2022-07-21T07:50:00;27.50;80.70
30250;DHT22;17064;47.974;13.826;2022-07-21T07:55:22;27.60;76.70
30250;DHT22;17064;47.974;13.826;2022-07-21T08:00:43;28.00;78.10
30250;DHT22;17064;47.974;13.826;2022-07-21T08:06:04;28.20;77.40
30250;DHT22;17064;47.974;13.826;2022-07-21T08:11:26;28.40;72.80
30250;DHT22;17064;47.974;13.826;2022-07-21T08:16:48;28.50;70.40
30250;DHT22;17064;47.974;13.826;2022-07-21T08:22:09;28.40;69.80
30250;DHT22;17064;47.974;13.826;2022-07-21T08:27:30;28.60;70.90
30250;DHT22;17064;47.974;13.826;2022-07-21T08:32:51;28.80;70.00
30250;DHT22;17064;47.974;13.826;2022-07-21T08:38:12;29.00;69.60
30250;DHT22;17064;47.974;13.826;2022-07-21T08:43:33;29.30;69.90
30250;DHT22;17064;47.974;13.826;2022-07-21T08:48:54;29.70;69.70
30250;DHT22;17064;47.974;13.826;2022-07-21T08:54:17;29.40;67.40
30250;DHT22;17064;47.974;13.826;2022-07-21T08:59:37;28.90;68.50
30250;DHT22;17064;47.974;13.826;2022-07-21T09:04:59;29.20;69.90
30250;DHT22;17064;47.974;13.826;2022-07-21T09:10:21;28.90;68.80
30250;DHT22;17064;47.974;13.826;2022-07-21T09:15:47;28.80;70.00
30250;DHT22;17064;47.974;13.826;2022-07-21T09:21:10;29.30;69.70
30250;DHT22;17064;47.974;13.826;2022-07-21T09:26:31;29.70;68.40
30250;DHT22;17064;47.974;13.826;2022-07-21T09:31:52;30.20;64.10
30250;DHT22;17064;47.974;13.826;2022-07-21T09:37:13;30.30;65.40
30250;DHT22;17064;47.974;13.826;2022-07-21T09:42:43;30.60;62.80
30250;DHT22;17064;47.974;13.826;2022-07-21T09:48:04;30.70;61.00
30250;DHT22;17064;47.974;13.826;2022-07-21T09:53:25;30.60;62.60
30250;DHT22;17064;47.974;13.826;2022-07-21T09:58:48;30.20;61.80
30250;DHT22;17064;47.974;13.826;2022-07-21T10:04:12;29.70;63.40
30250;DHT22;17064;47.974;13.826;2022-07-21T10:09:34;29.50;65.00
30250;DHT22;17064;47.974;13.826;2022-07-21T10:14:55;29.60;65.00
30250;DHT22;17064;47.974;13.826;2022-07-21T10:20:21;29.50;66.40
30250;DHT22;17064;47.974;13.826;2022-07-21T10:25:45;29.40;67.50
30250;DHT22;17064;47.974;13.826;2022-07-21T10:31:24;29.30;68.30
30250;DHT22;17064;47.974;13.826;2022-07-21T10:36:46;29.20;69.50
30250;DHT22;17064;47.974;13.826;2022-07-21T10:42:15;29.20;70.10
30250;DHT22;17064;47.974;13.826;2022-07-21T10:47:36;29.50;70.30
30250;DHT22;17064;47.974;13.826;2022-07-21T10:53:00;30.10;73.70
30250;DHT22;17064;47.974;13.826;2022-07-21T11:04:21;29.70;67.30
30250;DHT22;17064;47.974;13.826;2022-07-21T11:10:16;29.50;67.50
30250;DHT22;17064;47.974;13.826;2022-07-21T11:15:53;29.10;69.40
30250;DHT22;17064;47.974;13.826;2022-07-21T11:21:16;28.90;69.50
30250;DHT22;17064;47.974;13.826;2022-07-21T11:26:37;29.00;70.50
30250;DHT22;17064;47.974;13.826;2022-07-21T11:31:58;29.30;69.60
30250;DHT22;17064;47.974;13.826;2022-07-21T11:37:29;29.40;65.50
30250;DHT22;17064;47.974;13.826;2022-07-21T11:42:51;29.50;69.30
30250;DHT22;17064;47.974;13.826;2022-07-21T11:48:14;29.80;66.40
30250;DHT22;17064;47.974;13.826;2022-07-21T11:53:35;29.60;64.50
30250;DHT22;17064;47.974;13.826;2022-07-21T11:59:10;29.30;66.90
30250;DHT22;17064;47.974;13.826;2022-07-21T12:10:01;28.80;67.20
30250;DHT22;17064;47.974;13.826;2022-07-21T12:15:25;28.70;68.00
30250;DHT22;17064;47.974;13.826;2022-07-21T12:21:02;28.60;67.00
30250;DHT22;17064;47.974;13.826;2022-07-21T12:26:23;28.50;67.20
30250;DHT22;17064;47.974;13.826;2022-07-21T12:31:44;28.30;67.90
30250;DHT22;17064;47.974;13.826;2022-07-21T12:37:05;28.10;67.50
30250;DHT22;17064;47.974;13.826;2022-07-21T12:48:09;27.50;70.20
30250;DHT22;17064;47.974;13.826;2022-07-21T12:53:32;27.30;71.30
30250;DHT22;17064;47.974;13.826;2022-07-21T12:58:57;27.20;72.20
30250;DHT22;17064;47.974;13.826;2022-07-21T13:04:19;26.90;75.00
30250;DHT22;17064;47.974;13.826;2022-07-21T13:09:40;26.70;77.40
30250;DHT22;17064;47.974;13.826;2022-07-21T13:15:01;26.60;79.10
30250;DHT22;17064;47.974;13.826;2022-07-21T13:20:22;26.50;80.70
30250;DHT22;17064;47.974;13.826;2022-07-21T13:25:43;26.30;83.30
30250;DHT22;17064;47.974;13.826;2022-07-21T13:31:06;26.20;83.40
30250;DHT22;17064;47.974;13.826;2022-07-21T13:36:27;26.20;85.50
30250;DHT22;17064;47.974;13.826;2022-07-21T13:41:48;26.10;86.40
30250;DHT22;17064;47.974;13.826;2022-07-21T13:47:09;26.10;86.60
30250;DHT22;17064;47.974;13.826;2022-07-21T13:52:32;26.10;87.20
30250;DHT22;17064;47.974;13.826;2022-07-21T13:57:53;26.00;83.80
30250;DHT22;17064;47.974;13.826;2022-07-21T14:03:14;26.00;87.00
30250;DHT22;17064;47.974;13.826;2022-07-21T14:08:35;26.00;88.40
30250;DHT22;17064;47.974;13.826;2022-07-21T14:13:56;26.10;87.10
30250;DHT22;17064;47.974;13.826;2022-07-21T14:19:17;26.20;90.00
30250;DHT22;17064;47.974;13.826;2022-07-21T14:24:38;26.20;85.20
30250;DHT22;17064;47.974;13.826;2022-07-21T14:30:27;26.20;85.50
30250;DHT22;17064;47.974;13.826;2022-07-21T14:35:48;26.20;87.60
30250;DHT22;17064;47.974;13.826;2022-07-21T14:41:09;26.20;87.50
30250;DHT22;17064;47.974;13.826;2022-07-21T14:46:30;26.20;87.30
30250;DHT22;17064;47.974;13.826;2022-07-21T14:51:51;26.20;87.10
30250;DHT22;17064;47.974;13.826;2022-07-21T14:57:12;26.10;89.00
30250;DHT22;17064;47.974;13.826;2022-07-21T15:02:33;26.00;89.10
30250;DHT22;17064;47.974;13.826;2022-07-21T15:07:54;25.90;89.60
30250;DHT22;17064;47.974;13.826;2022-07-21T15:13:16;25.80;90.10
30250;DHT22;17064;47.974;13.826;2022-07-21T15:18:37;25.70;90.20
30250;DHT22;17064;47.974;13.826;2022-07-21T15:23:58;25.70;90.00
30250;DHT22;17064;47.974;13.826;2022-07-21T15:29:19;25.60;90.10
30250;DHT22;17064;47.974;13.826;2022-07-21T15:34:50;25.40;90.50
30250;DHT22;17064;47.974;13.826;2022-07-21T15:40:11;25.30;90.20
30250;DHT22;17064;47.974;13.826;2022-07-21T15:45:32;25.20;91.20
30250;DHT22;17064;47.974;13.826;2022-07-21T15:50:54;25.10;91.60
30250;DHT22;17064;47.974;13.826;2022-07-21T15:56:15;24.90;92.20
30250;DHT22;17064;47.974;13.826;2022-07-21T16:01:36;24.90;92.60
30250;DHT22;17064;47.974;13.826;2022-07-21T16:06:57;24.80;93.20
30250;DHT22;17064;47.974;13.826;2022-07-21T16:12:21;24.60;93.20
30250;DHT22;17064;47.974;13.826;2022-07-21T16:17:47;24.60;94.00
30250;DHT22;17064;47.974;13.826;2022-07-21T16:23:11;24.60;94.00
30250;DHT22;17064;47.974;13.826;2022-07-21T16:28:32;24.60;94.20
30250;DHT22;17064;47.974;13.826;2022-07-21T16:33:56;24.60;94.10
30250;DHT22;17064;47.974;13.826;2022-07-21T16:39:17;24.70;94.20
30250;DHT22;17064;47.974;13.826;2022-07-21T16:44:39;24.70;94.30
30250;DHT22;17064;47.974;13.826;2022-07-21T16:50:01;24.60;93.00
30250;DHT22;17064;47.974;13.826;2022-07-21T16:55:22;24.50;92.80
30250;DHT22;17064;47.974;13.826;2022-07-21T17:00:55;24.40;92.10
30250;DHT22;17064;47.974;13.826;2022-07-21T17:06:16;24.30;92.00
30250;DHT22;17064;47.974;13.826;2022-07-21T17:11:37;24.20;91.60
30250;DHT22;17064;47.974;13.826;2022-07-21T17:16:58;24.20;91.90
30250;DHT22;17064;47.974;13.826;2022-07-21T17:22:19;24.20;91.80
30250;DHT22;17064;47.974;13.826;2022-07-21T17:27:43;24.20;92.30
30250;DHT22;17064;47.974;13.826;2022-07-21T17:33:04;24.00;93.00
30250;DHT22;17064;47.974;13.826;2022-07-21T17:38:25;23.80;93.60
30250;DHT22;17064;47.974;13.826;2022-07-21T17:43:49;23.70;94.10
30250;DHT22;17064;47.974;13.826;2022-07-21T17:49:10;23.60;94.40
30250;DHT22;17064;47.974;13.826;2022-07-21T17:54:32;23.40;94.90
30250;DHT22;17064;47.974;13.826;2022-07-21T17:59:53;23.30;98.50
30250;DHT22;17064;47.974;13.826;2022-07-21T18:05:14;22.90;99.90
30250;DHT22;17064;47.974;13.826;2022-07-21T18:10:35;22.50;99.90
30250;DHT22;17064;47.974;13.826;2022-07-21T18:15:56;22.20;99.90
30250;DHT22;17064;47.974;13.826;2022-07-21T18:21:17;21.80;99.90
30250;DHT22;17064;47.974;13.826;2022-07-21T18:26:39;21.40;99.90
30250;DHT22;17064;47.974;13.826;2022-07-21T18:32:00;21.10;99.90
30250;DHT22;17064;47.974;13.826;2022-07-21T18:37:21;21.00;99.90
30250;DHT22;17064;47.974;13.826;2022-07-21T18:42:42;20.90;99.90
30250;DHT22;17064;47.974;13.826;2022-07-21T18:48:04;20.70;99.90
30250;DHT22;17064;47.974;13.826;2022-07-21T18:53:26;20.50;99.90
30250;DHT22;17064;47.974;13.826;2022-07-21T18:58:47;20.20;99.90
30250;DHT22;17064;47.974;13.826;2022-07-21T19:04:08;20.00;99.90
30250;DHT22;17064;47.974;13.826;2022-07-21T19:09:29;19.80;99.90
30250;DHT22;17064;47.974;13.826;2022-07-21T19:14:50;19.60;99.90
30250;DHT22;17064;47.974;13.826;2022-07-21T19:20:13;19.60;99.90
30250;DHT22;17064;47.974;13.826;2022-07-21T19:25:35;19.50;99.90
30250;DHT22;17064;47.974;13.826;2022-07-21T19:30:56;19.50;99.90
30250;DHT22;17064;47.974;13.826;2022-07-21T19:36:17;19.50;99.90
30250;DHT22;17064;47.974;13.826;2022-07-21T19:41:38;19.50;99.90
30250;DHT22;17064;47.974;13.826;2022-07-21T19:47:00;19.50;99.90
30250;DHT22;17064;47.974;13.826;2022-07-21T19:52:21;19.50;99.90
30250;DHT22;17064;47.974;13.826;2022-07-21T19:57:42;19.50;99.90
30250;DHT22;17064;47.974;13.826;2022-07-21T20:03:05;19.50;99.90
30250;DHT22;17064;47.974;13.826;2022-07-21T20:08:26;19.50;99.90
30250;DHT22;17064;47.974;13.826;2022-07-21T20:13:47;19.50;99.90
30250;DHT22;17064;47.974;13.826;2022-07-21T20:19:08;19.50;99.90
30250;DHT22;17064;47.974;13.826;2022-07-21T20:24:29;19.50;99.90
30250;DHT22;17064;47.974;13.826;2022-07-21T20:29:51;19.40;99.90
30250;DHT22;17064;47.974;13.826;2022-07-21T20:35:13;19.30;99.90
30250;DHT22;17064;47.974;13.826;2022-07-21T20:40:34;19.30;99.90
30250;DHT22;17064;47.974;13.826;2022-07-21T20:45:56;19.30;99.90
30250;DHT22;17064;47.974;13.826;2022-07-21T20:51:17;19.20;99.90
30250;DHT22;17064;47.974;13.826;2022-07-21T20:56:38;19.30;99.90
30250;DHT22;17064;47.974;13.826;2022-07-21T21:01:59;19.40;99.90
30250;DHT22;17064;47.974;13.826;2022-07-21T21:07:20;19.40;99.90
30250;DHT22;17064;47.974;13.826;2022-07-21T21:12:41;19.40;99.90
30250;DHT22;17064;47.974;13.826;2022-07-21T21:18:03;19.40;99.90
30250;DHT22;17064;47.974;13.826;2022-07-21T21:23:24;19.30;99.90
30250;DHT22;17064;47.974;13.826;2022-07-21T21:28:45;19.30;99.90
30250;DHT22;17064;47.974;13.826;2022-07-21T21:34:06;19.30;99.90
30250;DHT22;17064;47.974;13.826;2022-07-21T21:39:27;19.30;99.90
30250;DHT22;17064;47.974;13.826;2022-07-21T21:44:48;19.30;99.90
30250;DHT22;17064;47.974;13.826;2022-07-21T21:50:09;19.30;99.90
30250;DHT22;17064;47.974;13.826;2022-07-21T21:55:30;19.30;99.90
30250;DHT22;17064;47.974;13.826;2022-07-21T22:00:52;19.30;99.90
30250;DHT22;17064;47.974;13.826;2022-07-21T22:06:13;19.30;99.90
30250;DHT22;17064;47.974;13.826;2022-07-21T22:11:34;19.30;99.90
30250;DHT22;17064;47.974;13.826;2022-07-21T22:16:55;19.30;99.90
30250;DHT22;17064;47.974;13.826;2022-07-21T22:22:16;19.20;99.90
30250;DHT22;17064;47.974;13.826;2022-07-21T22:27:37;19.10;99.90
30250;DHT22;17064;47.974;13.826;2022-07-21T22:32:58;19.10;99.90
30250;DHT22;17064;47.974;13.826;2022-07-21T22:38:19;19.10;99.90
30250;DHT22;17064;47.974;13.826;2022-07-21T22:43:41;19.00;99.90
30250;DHT22;17064;47.974;13.826;2022-07-21T22:49:02;19.00;99.90
30250;DHT22;17064;47.974;13.826;2022-07-21T22:54:23;19.00;99.90
30250;DHT22;17064;47.974;13.826;2022-07-21T22:59:45;19.00;99.90
30250;DHT22;17064;47.974;13.826;2022-07-21T23:05:06;19.00;99.90
30250;DHT22;17064;47.974;13.826;2022-07-21T23:10:27;19.00;99.90
30250;DHT22;17064;47.974;13.826;2022-07-21T23:15:48;18.90;99.90
30250;DHT22;17064;47.974;13.826;2022-07-21T23:21:09;18.90;99.90
30250;DHT22;17064;47.974;13.826;2022-07-21T23:26:30;18.90;99.90
30250;DHT22;17064;47.974;13.826;2022-07-21T23:31:51;18.80;99.90
30250;DHT22;17064;47.974;13.826;2022-07-21T23:37:12;18.80;99.90
30250;DHT22;17064;47.974;13.826;2022-07-21T23:42:33;18.70;99.90
30250;DHT22;17064;47.974;13.826;2022-07-21T23:47:54;18.70;99.90
30250;DHT22;17064;47.974;13.826;2022-07-21T23:53:15;18.60;99.90
30250;DHT22;17064;47.974;13.826;2022-07-21T23:58:36;18.50;99.90
